sensor_id;sensor_type;location;lat;lon;timestamp;temperature;humidity
41924;DHT22;27613;48.116;11.656;2023-02-26T00:01:02;-1.00;99.90
41924;DHT22;27613;48.116;11.656;2023-02-26T00:03:27;-0.90;99.90
41924;DHT22;27613;48.116;11.656;2023-02-26T00:05:57;-0.90;99.90
41924;DHT22;27613;48.116;11.656;2023-02-26T00:08:23;-0.90;99.90
41924;DHT22;27613;48.116;11.656;2023-02-26T00:10:48;-1.00;99.90
41924;DHT22;27613;48.116;11.656;2023-02-26T00:13:14;-0.90;99.90
41924;DHT22;27613;48.116;11.656;2023-02-26T00:15:40;-0.90;99.90
41924;DHT22;27613;48.116;11.656;2023-02-26T00:18:08;-0.90;99.90
41924;DHT22;27613;48.116;11.656;2023-02-26T00:20:38;-0.90;99.90
41924;DHT22;27613;48.116;11.656;2023-02-26T00:23:03;-1.00;99.90
41924;DHT22;27613;48.116;11.656;2023-02-26T00:25:29;-1.00;99.90
41924;DHT22;27613;48.116;11.656;2023-02-26T00:27:55;-1.00;99.90
41924;DHT22;27613;48.116;11.656;2023-02-26T00:30:21;-1.00;99.90
41924;DHT22;27613;48.116;11.656;2023-02-26T00:32:46;-1.00;99.90
41924;DHT22;27613;48.116;11.656;2023-02-26T00:35:14;-1.00;99.90
41924;DHT22;27613;48.116;11.656;2023-02-26T00:38:00;-1.00;99.90
41924;DHT22;27613;48.116;11.656;2023-02-26T00:40:46;-1.00;99.90
41924;DHT22;27613;48.116;11.656;2023-02-26T00:43:22;-1.00;99.90
41924;DHT22;27613;48.116;11.656;2023-02-26T00:48:48;-1.00;99.90
41924;DHT22;27613;48.116;11.656;2023-02-26T00:51:27;-1.10;99.90
41924;DHT22;27613;48.116;11.656;2023-02-26T00:56:27;-1.10;99.90
41924;DHT22;27613;48.116;11.656;2023-02-26T00:58:53;-1.10;99.90
41924;DHT22;27613;48.116;11.656;2023-02-26T01:01:18;-1.00;99.90
41924;DHT22;27613;48.116;11.656;2023-02-26T01:03:44;-1.00;99.90
41924;DHT22;27613;48.116;11.656;2023-02-26T01:06:12;-1.00;99.90
41924;DHT22;27613;48.116;11.656;2023-02-26T01:08:49;-1.00;99.90
41924;DHT22;27613;48.116;11.656;2023-02-26T01:11:17;-1.10;99.90
41924;DHT22;27613;48.116;11.656;2023-02-26T01:13:43;-1.00;99.90
41924;DHT22;27613;48.116;11.656;2023-02-26T01:16:15;-1.00;99.90
41924;DHT22;27613;48.116;11.656;2023-02-26T01:19:07;-1.00;99.90
41924;DHT22;27613;48.116;11.656;2023-02-26T01:21:42;-1.00;99.90
41924;DHT22;27613;48.116;11.656;2023-02-26T01:24:14;-1.00;99.90
41924;DHT22;27613;48.116;11.656;2023-02-26T01:26:41;-1.00;99.90
41924;DHT22;27613;48.116;11.656;2023-02-26T01:29:07;-1.10;99.90
41924;DHT22;27613;48.116;11.656;2023-02-26T01:34:25;-1.10;99.90
41924;DHT22;27613;48.116;11.656;2023-02-26T01:40:19;-1.30;99.90
41924;DHT22;27613;48.116;11.656;2023-02-26T01:42:51;-1.30;99.90
41924;DHT22;27613;48.116;11.656;2023-02-26T01:45:28;-1.20;99.90
41924;DHT22;27613;48.116;11.656;2023-02-26T01:48:10;-1.30;99.90
41924;DHT22;27613;48.116;11.656;2023-02-26T01:50:37;-1.30;99.90
41924;DHT22;27613;48.116;11.656;2023-02-26T01:53:16;-1.30;99.90
41924;DHT22;27613;48.116;11.656;2023-02-26T01:55:46;-1.30;99.90
41924;DHT22;27613;48.116;11.656;2023-02-26T01:58:13;-1.40;99.90
41924;DHT22;27613;48.116;11.656;2023-02-26T02:00:39;-1.30;99.90
41924;DHT22;27613;48.116;11.656;2023-02-26T02:03:05;-1.30;99.90
41924;DHT22;27613;48.116;11.656;2023-02-26T02:06:09;-1.30;99.90
41924;DHT22;27613;48.116;11.656;2023-02-26T02:08:37;-1.20;99.90
41924;DHT22;27613;48.116;11.656;2023-02-26T02:11:04;-1.30;99.90
41924;DHT22;27613;48.116;11.656;2023-02-26T02:19:23;-1.40;99.90
41924;DHT22;27613;48.116;11.656;2023-02-26T02:25:08;-1.40;99.90
41924;DHT22;27613;48.116;11.656;2023-02-26T02:27:55;-1.40;99.90
41924;DHT22;27613;48.116;11.656;2023-02-26T02:33:14;-1.40;99.90
41924;DHT22;27613;48.116;11.656;2023-02-26T02:35:54;-1.40;99.90
41924;DHT22;27613;48.116;11.656;2023-02-26T02:38:54;-1.40;99.90
41924;DHT22;27613;48.116;11.656;2023-02-26T02:41:26;-1.40;99.90
41924;DHT22;27613;48.116;11.656;2023-02-26T02:43:56;-1.50;99.90
41924;DHT22;27613;48.116;11.656;2023-02-26T02:46:27;-1.60;99.90
41924;DHT22;27613;48.116;11.656;2023-02-26T02:49:00;-1.60;99.90
41924;DHT22;27613;48.116;11.656;2023-02-26T02:51:31;-1.70;99.90
41924;DHT22;27613;48.116;11.656;2023-02-26T02:54:06;-1.70;99.90
41924;DHT22;27613;48.116;11.656;2023-02-26T02:56:49;-1.70;99.90
41924;DHT22;27613;48.116;11.656;2023-02-26T02:59:29;-1.60;99.90
41924;DHT22;27613;48.116;11.656;2023-02-26T03:02:22;-1.60;99.90
41924;DHT22;27613;48.116;11.656;2023-02-26T03:04:49;-1.60;99.90
41924;DHT22;27613;48.116;11.656;2023-02-26T03:07:15;-1.60;99.90
41924;DHT22;27613;48.116;11.656;2023-02-26T03:09:41;-1.70;99.90
41924;DHT22;27613;48.116;11.656;2023-02-26T03:12:07;-1.60;99.90
41924;DHT22;27613;48.116;11.656;2023-02-26T03:14:33;-1.70;99.90
41924;DHT22;27613;48.116;11.656;2023-02-26T03:23:00;-1.70;99.90
41924;DHT22;27613;48.116;11.656;2023-02-26T03:25:40;-1.60;99.90
41924;DHT22;27613;48.116;11.656;2023-02-26T03:30:49;-1.80;99.90
41924;DHT22;27613;48.116;11.656;2023-02-26T03:33:27;-1.80;99.90
41924;DHT22;27613;48.116;11.656;2023-02-26T03:36:07;-1.80;99.90
41924;DHT22;27613;48.116;11.656;2023-02-26T03:41:38;-1.80;99.90
41924;DHT22;27613;48.116;11.656;2023-02-26T03:44:10;-1.80;99.90
41924;DHT22;27613;48.116;11.656;2023-02-26T03:46:45;-1.80;99.90
41924;DHT22;27613;48.116;11.656;2023-02-26T03:49:18;-1.90;99.90
41924;DHT22;27613;48.116;11.656;2023-02-26T03:51:45;-2.00;99.90
41924;DHT22;27613;48.116;11.656;2023-02-26T03:54:37;-2.00;99.90
41924;DHT22;27613;48.116;11.656;2023-02-26T03:57:03;-1.90;99.90
41924;DHT22;27613;48.116;11.656;2023-02-26T03:59:30;-1.90;99.90
41924;DHT22;27613;48.116;11.656;2023-02-26T04:02:04;-2.00;99.90
41924;DHT22;27613;48.116;11.656;2023-02-26T04:04:38;-2.10;99.90
41924;DHT22;27613;48.116;11.656;2023-02-26T04:07:07;-2.10;99.90
41924;DHT22;27613;48.116;11.656;2023-02-26T04:09:33;-2.10;99.90
41924;DHT22;27613;48.116;11.656;2023-02-26T04:11:59;-2.20;99.90
41924;DHT22;27613;48.116;11.656;2023-02-26T04:14:24;-2.20;99.90
41924;DHT22;27613;48.116;11.656;2023-02-26T04:16:50;-2.30;99.90
41924;DHT22;27613;48.116;11.656;2023-02-26T04:19:15;-2.30;99.90
41924;DHT22;27613;48.116;11.656;2023-02-26T04:21:41;-2.30;99.90
41924;DHT22;27613;48.116;11.656;2023-02-26T04:24:06;-2.40;99.90
41924;DHT22;27613;48.116;11.656;2023-02-26T04:26:32;-2.40;99.90
41924;DHT22;27613;48.116;11.656;2023-02-26T04:28:57;-2.40;99.90
41924;DHT22;27613;48.116;11.656;2023-02-26T04:31:23;-2.40;99.90
41924;DHT22;27613;48.116;11.656;2023-02-26T04:33:48;-2.40;99.90
41924;DHT22;27613;48.116;11.656;2023-02-26T04:36:14;-2.50;99.90
41924;DHT22;27613;48.116;11.656;2023-02-26T04:38:39;-2.50;99.90
41924;DHT22;27613;48.116;11.656;2023-02-26T04:41:05;-2.50;99.90
41924;DHT22;27613;48.116;11.656;2023-02-26T04:43:31;-2.50;99.90
41924;DHT22;27613;48.116;11.656;2023-02-26T04:45:57;-2.60;99.90
41924;DHT22;27613;48.116;11.656;2023-02-26T04:48:22;-2.60;99.90
41924;DHT22;27613;48.116;11.656;2023-02-26T04:50:48;-2.70;99.90
41924;DHT22;27613;48.116;11.656;2023-02-26T04:53:14;-2.70;99.90
41924;DHT22;27613;48.116;11.656;2023-02-26T04:55:39;-2.80;99.90
41924;DHT22;27613;48.116;11.656;2023-02-26T04:58:05;-2.90;99.90
41924;DHT22;27613;48.116;11.656;2023-02-26T05:00:31;-2.90;99.90
41924;DHT22;27613;48.116;11.656;2023-02-26T05:02:56;-2.90;99.90
41924;DHT22;27613;48.116;11.656;2023-02-26T05:05:22;-2.90;99.90
41924;DHT22;27613;48.116;11.656;2023-02-26T05:07:48;-3.00;99.90
41924;DHT22;27613;48.116;11.656;2023-02-26T05:10:13;-3.10;99.90
41924;DHT22;27613;48.116;11.656;2023-02-26T05:12:39;-3.10;99.90
41924;DHT22;27613;48.116;11.656;2023-02-26T05:15:05;-3.10;99.90
41924;DHT22;27613;48.116;11.656;2023-02-26T05:17:30;-3.20;99.90
41924;DHT22;27613;48.116;11.656;2023-02-26T05:19:56;-3.20;99.90
41924;DHT22;27613;48.116;11.656;2023-02-26T05:22:21;-3.20;99.90
41924;DHT22;27613;48.116;11.656;2023-02-26T05:24:47;-3.30;99.90
41924;DHT22;27613;48.116;11.656;2023-02-26T05:27:13;-3.40;99.90
41924;DHT22;27613;48.116;11.656;2023-02-26T05:29:39;-3.40;99.90
41924;DHT22;27613;48.116;11.656;2023-02-26T05:32:06;-3.40;99.90
41924;DHT22;27613;48.116;11.656;2023-02-26T05:34:32;-3.40;99.90
41924;DHT22;27613;48.116;11.656;2023-02-26T05:36:57;-3.40;99.90
41924;DHT22;27613;48.116;11.656;2023-02-26T05:39:23;-3.40;99.90
41924;DHT22;27613;48.116;11.656;2023-02-26T05:41:48;-3.40;99.90
41924;DHT22;27613;48.116;11.656;2023-02-26T05:44:16;-3.50;99.90
41924;DHT22;27613;48.116;11.656;2023-02-26T05:46:41;-3.50;99.90
41924;DHT22;27613;48.116;11.656;2023-02-26T05:49:07;-3.60;99.90
41924;DHT22;27613;48.116;11.656;2023-02-26T05:51:32;-3.60;99.90
41924;DHT22;27613;48.116;11.656;2023-02-26T05:53:58;-3.60;99.90
41924;DHT22;27613;48.116;11.656;2023-02-26T05:56:23;-3.60;99.90
41924;DHT22;27613;48.116;11.656;2023-02-26T05:58:49;-3.70;99.90
41924;DHT22;27613;48.116;11.656;2023-02-26T06:01:14;-3.70;99.90
41924;DHT22;27613;48.116;11.656;2023-02-26T06:03:40;-3.70;99.90
41924;DHT22;27613;48.116;11.656;2023-02-26T06:06:09;-3.80;99.90
41924;DHT22;27613;48.116;11.656;2023-02-26T06:08:35;-3.70;99.90
41924;DHT22;27613;48.116;11.656;2023-02-26T06:11:01;-3.70;99.90
41924;DHT22;27613;48.116;11.656;2023-02-26T06:13:27;-3.80;99.90
41924;DHT22;27613;48.116;11.656;2023-02-26T06:15:52;-3.80;99.90
41924;DHT22;27613;48.116;11.656;2023-02-26T06:18:18;-3.70;99.90
41924;DHT22;27613;48.116;11.656;2023-02-26T06:20:43;-3.60;99.90
41924;DHT22;27613;48.116;11.656;2023-02-26T06:23:09;-3.50;99.90
41924;DHT22;27613;48.116;11.656;2023-02-26T06:25:34;-3.40;99.90
41924;DHT22;27613;48.116;11.656;2023-02-26T06:28:00;-3.40;99.90
41924;DHT22;27613;48.116;11.656;2023-02-26T06:30:26;-3.30;99.90
41924;DHT22;27613;48.116;11.656;2023-02-26T06:32:51;-3.30;99.90
41924;DHT22;27613;48.116;11.656;2023-02-26T06:35:17;-3.40;99.90
41924;DHT22;27613;48.116;11.656;2023-02-26T06:37:42;-3.40;99.90
41924;DHT22;27613;48.116;11.656;2023-02-26T06:40:09;-3.30;99.90
41924;DHT22;27613;48.116;11.656;2023-02-26T06:42:35;-3.30;99.90
41924;DHT22;27613;48.116;11.656;2023-02-26T06:45:01;-3.20;99.90
41924;DHT22;27613;48.116;11.656;2023-02-26T06:47:27;-3.20;99.90
41924;DHT22;27613;48.116;11.656;2023-02-26T06:49:52;-3.30;99.90
41924;DHT22;27613;48.116;11.656;2023-02-26T06:52:18;-3.30;99.90
41924;DHT22;27613;48.116;11.656;2023-02-26T06:54:44;-3.40;99.90
41924;DHT22;27613;48.116;11.656;2023-02-26T06:57:09;-3.30;99.90
41924;DHT22;27613;48.116;11.656;2023-02-26T06:59:35;-3.30;99.90
41924;DHT22;27613;48.116;11.656;2023-02-26T07:02:00;-3.20;99.90
41924;DHT22;27613;48.116;11.656;2023-02-26T07:04:26;-3.30;99.90
41924;DHT22;27613;48.116;11.656;2023-02-26T07:06:51;-3.10;99.90
41924;DHT22;27613;48.116;11.656;2023-02-26T07:09:17;-2.90;99.90
41924;DHT22;27613;48.116;11.656;2023-02-26T07:11:44;-2.80;99.90
41924;DHT22;27613;48.116;11.656;2023-02-26T07:14:10;-2.70;99.90
41924;DHT22;27613;48.116;11.656;2023-02-26T07:16:35;-2.60;99.90
41924;DHT22;27613;48.116;11.656;2023-02-26T07:19:01;-2.40;99.90
41924;DHT22;27613;48.116;11.656;2023-02-26T07:21:26;-2.20;99.90
41924;DHT22;27613;48.116;11.656;2023-02-26T07:23:52;-2.40;99.90
41924;DHT22;27613;48.116;11.656;2023-02-26T07:26:17;-2.40;99.90
41924;DHT22;27613;48.116;11.656;2023-02-26T07:28:43;-2.40;99.90
41924;DHT22;27613;48.116;11.656;2023-02-26T07:31:09;-2.40;99.90
41924;DHT22;27613;48.116;11.656;2023-02-26T07:33:34;-2.30;99.90
41924;DHT22;27613;48.116;11.656;2023-02-26T07:36:00;-1.90;99.90
41924;DHT22;27613;48.116;11.656;2023-02-26T07:38:26;-1.50;99.90
41924;DHT22;27613;48.116;11.656;2023-02-26T07:40:54;-1.40;99.90
41924;DHT22;27613;48.116;11.656;2023-02-26T07:43:21;-1.50;99.90
41924;DHT22;27613;48.116;11.656;2023-02-26T07:45:49;-1.80;99.90
41924;DHT22;27613;48.116;11.656;2023-02-26T07:48:15;-2.10;99.90
41924;DHT22;27613;48.116;11.656;2023-02-26T07:50:40;-2.50;99.90
41924;DHT22;27613;48.116;11.656;2023-02-26T07:53:06;-2.70;99.90
41924;DHT22;27613;48.116;11.656;2023-02-26T07:55:31;-2.50;99.90
41924;DHT22;27613;48.116;11.656;2023-02-26T07:57:57;-2.50;99.90
41924;DHT22;27613;48.116;11.656;2023-02-26T08:00:22;-2.20;99.90
41924;DHT22;27613;48.116;11.656;2023-02-26T08:02:48;-1.90;99.90
41924;DHT22;27613;48.116;11.656;2023-02-26T08:05:13;-1.90;99.90
41924;DHT22;27613;48.116;11.656;2023-02-26T08:07:39;-1.80;99.90
41924;DHT22;27613;48.116;11.656;2023-02-26T08:10:05;-1.70;99.90
41924;DHT22;27613;48.116;11.656;2023-02-26T08:12:31;-1.90;99.90
41924;DHT22;27613;48.116;11.656;2023-02-26T08:14:57;-1.70;99.90
41924;DHT22;27613;48.116;11.656;2023-02-26T08:17:23;-1.50;99.90
41924;DHT22;27613;48.116;11.656;2023-02-26T08:19:48;-2.00;99.90
41924;DHT22;27613;48.116;11.656;2023-02-26T08:22:14;-2.00;99.90
41924;DHT22;27613;48.116;11.656;2023-02-26T08:24:39;-1.70;99.90
41924;DHT22;27613;48.116;11.656;2023-02-26T08:27:05;-1.80;99.90
41924;DHT22;27613;48.116;11.656;2023-02-26T08:29:30;-1.60;99.90
41924;DHT22;27613;48.116;11.656;2023-02-26T08:31:56;-1.40;99.90
41924;DHT22;27613;48.116;11.656;2023-02-26T08:34:21;-1.10;99.90
41924;DHT22;27613;48.116;11.656;2023-02-26T08:36:47;-1.10;99.90
41924;DHT22;27613;48.116;11.656;2023-02-26T08:39:12;-1.10;99.90
41924;DHT22;27613;48.116;11.656;2023-02-26T08:41:38;-1.20;99.90
41924;DHT22;27613;48.116;11.656;2023-02-26T08:44:03;-1.10;99.90
41924;DHT22;27613;48.116;11.656;2023-02-26T08:46:29;-0.90;99.90
41924;DHT22;27613;48.116;11.656;2023-02-26T08:48:55;-1.20;99.90
41924;DHT22;27613;48.116;11.656;2023-02-26T08:51:21;-1.20;99.90
41924;DHT22;27613;48.116;11.656;2023-02-26T08:53:47;-1.40;99.90
41924;DHT22;27613;48.116;11.656;2023-02-26T08:56:14;-1.40;99.90
41924;DHT22;27613;48.116;11.656;2023-02-26T08:58:40;-1.60;99.90
41924;DHT22;27613;48.116;11.656;2023-02-26T09:01:06;-1.50;99.90
41924;DHT22;27613;48.116;11.656;2023-02-26T09:03:31;-1.30;99.90
41924;DHT22;27613;48.116;11.656;2023-02-26T09:05:57;-1.30;99.90
41924;DHT22;27613;48.116;11.656;2023-02-26T09:08:22;-1.40;99.90
41924;DHT22;27613;48.116;11.656;2023-02-26T09:10:48;-1.30;99.90
41924;DHT22;27613;48.116;11.656;2023-02-26T09:13:13;-1.40;99.90
41924;DHT22;27613;48.116;11.656;2023-02-26T09:15:39;-1.50;99.90
41924;DHT22;27613;48.116;11.656;2023-02-26T09:18:05;-1.40;99.90
41924;DHT22;27613;48.116;11.656;2023-02-26T09:20:30;-1.30;99.90
41924;DHT22;27613;48.116;11.656;2023-02-26T09:22:56;-1.50;99.90
41924;DHT22;27613;48.116;11.656;2023-02-26T09:25:22;-1.50;99.90
41924;DHT22;27613;48.116;11.656;2023-02-26T09:27:48;-1.40;99.90
41924;DHT22;27613;48.116;11.656;2023-02-26T09:30:14;-1.10;99.90
41924;DHT22;27613;48.116;11.656;2023-02-26T09:32:40;-1.00;99.90
41924;DHT22;27613;48.116;11.656;2023-02-26T09:35:06;-0.70;99.90
41924;DHT22;27613;48.116;11.656;2023-02-26T09:37:31;-0.20;99.90
41924;DHT22;27613;48.116;11.656;2023-02-26T09:39:57;-0.10;99.90
41924;DHT22;27613;48.116;11.656;2023-02-26T09:45:32;0.80;99.90
41924;DHT22;27613;48.116;11.656;2023-02-26T09:48:02;1.10;99.90
41924;DHT22;27613;48.116;11.656;2023-02-26T09:53:06;0.60;99.90
41924;DHT22;27613;48.116;11.656;2023-02-26T09:55:39;0.60;99.90
41924;DHT22;27613;48.116;11.656;2023-02-26T10:00:59;0.00;99.90
41924;DHT22;27613;48.116;11.656;2023-02-26T10:06:33;-0.50;99.90
41924;DHT22;27613;48.116;11.656;2023-02-26T10:12:04;-0.60;99.90
41924;DHT22;27613;48.116;11.656;2023-02-26T10:14:43;-0.70;99.90
41924;DHT22;27613;48.116;11.656;2023-02-26T10:17:19;-0.60;99.90
41924;DHT22;27613;48.116;11.656;2023-02-26T10:19:51;-0.30;99.90
41924;DHT22;27613;48.116;11.656;2023-02-26T10:22:36;-0.10;99.90
41924;DHT22;27613;48.116;11.656;2023-02-26T10:25:09;0.20;99.90
41924;DHT22;27613;48.116;11.656;2023-02-26T10:27:47;0.40;99.90
41924;DHT22;27613;48.116;11.656;2023-02-26T10:35:41;0.90;99.90
41924;DHT22;27613;48.116;11.656;2023-02-26T10:38:16;1.00;99.90
41924;DHT22;27613;48.116;11.656;2023-02-26T10:50:49;0.20;99.90
41924;DHT22;27613;48.116;11.656;2023-02-26T10:53:14;0.30;99.90
41924;DHT22;27613;48.116;11.656;2023-02-26T10:56:03;0.40;99.90
41924;DHT22;27613;48.116;11.656;2023-02-26T10:58:29;0.10;99.90
41924;DHT22;27613;48.116;11.656;2023-02-26T11:00:55;-0.20;99.90
41924;DHT22;27613;48.116;11.656;2023-02-26T11:03:38;0.20;99.90
41924;DHT22;27613;48.116;11.656;2023-02-26T11:06:05;0.50;99.90
41924;DHT22;27613;48.116;11.656;2023-02-26T11:08:44;0.80;99.90
41924;DHT22;27613;48.116;11.656;2023-02-26T11:11:10;0.90;99.90
41924;DHT22;27613;48.116;11.656;2023-02-26T11:13:56;1.00;99.90
41924;DHT22;27613;48.116;11.656;2023-02-26T11:16:21;0.40;99.90
41924;DHT22;27613;48.116;11.656;2023-02-26T11:18:49;0.20;99.90
41924;DHT22;27613;48.116;11.656;2023-02-26T11:21:22;0.30;99.90
41924;DHT22;27613;48.116;11.656;2023-02-26T11:24:02;0.40;99.90
41924;DHT22;27613;48.116;11.656;2023-02-26T11:26:36;0.50;99.90
41924;DHT22;27613;48.116;11.656;2023-02-26T11:29:03;0.70;99.90
41924;DHT22;27613;48.116;11.656;2023-02-26T11:31:29;1.00;99.90
41924;DHT22;27613;48.116;11.656;2023-02-26T11:34:02;1.40;99.90
41924;DHT22;27613;48.116;11.656;2023-02-26T11:36:30;1.40;99.90
41924;DHT22;27613;48.116;11.656;2023-02-26T11:39:01;1.10;99.90
41924;DHT22;27613;48.116;11.656;2023-02-26T11:41:28;0.70;99.90
41924;DHT22;27613;48.116;11.656;2023-02-26T11:44:06;0.50;99.90
41924;DHT22;27613;48.116;11.656;2023-02-26T11:46:39;0.70;99.90
41924;DHT22;27613;48.116;11.656;2023-02-26T11:49:09;0.40;99.90
41924;DHT22;27613;48.116;11.656;2023-02-26T11:51:36;0.40;99.90
41924;DHT22;27613;48.116;11.656;2023-02-26T11:54:01;0.80;99.90
41924;DHT22;27613;48.116;11.656;2023-02-26T11:56:36;1.40;99.90
41924;DHT22;27613;48.116;11.656;2023-02-26T11:59:23;2.80;99.90
41924;DHT22;27613;48.116;11.656;2023-02-26T12:01:50;3.60;99.90
41924;DHT22;27613;48.116;11.656;2023-02-26T12:04:21;3.80;99.90
41924;DHT22;27613;48.116;11.656;2023-02-26T12:06:51;3.10;99.90
41924;DHT22;27613;48.116;11.656;2023-02-26T12:09:18;2.70;99.90
41924;DHT22;27613;48.116;11.656;2023-02-26T12:11:50;2.20;99.90
41924;DHT22;27613;48.116;11.656;2023-02-26T12:20:28;1.90;99.90
41924;DHT22;27613;48.116;11.656;2023-02-26T12:23:13;3.00;99.90
41924;DHT22;27613;48.116;11.656;2023-02-26T12:26:04;4.50;99.90
41924;DHT22;27613;48.116;11.656;2023-02-26T12:31:45;5.20;92.90
41924;DHT22;27613;48.116;11.656;2023-02-26T12:37:22;5.30;90.90
41924;DHT22;27613;48.116;11.656;2023-02-26T12:45:29;3.80;94.30
41924;DHT22;27613;48.116;11.656;2023-02-26T12:51:02;6.80;90.00
41924;DHT22;27613;48.116;11.656;2023-02-26T13:21:41;6.20;75.30
41924;DHT22;27613;48.116;11.656;2023-02-26T13:24:27;6.10;76.40
41924;DHT22;27613;48.116;11.656;2023-02-26T13:26:56;5.90;77.30
41924;DHT22;27613;48.116;11.656;2023-02-26T13:29:26;5.40;79.90
41924;DHT22;27613;48.116;11.656;2023-02-26T13:31:59;5.00;82.70
41924;DHT22;27613;48.116;11.656;2023-02-26T13:34:41;5.10;83.40
41924;DHT22;27613;48.116;11.656;2023-02-26T13:37:23;4.60;86.00
41924;DHT22;27613;48.116;11.656;2023-02-26T13:43:03;3.40;87.80
41924;DHT22;27613;48.116;11.656;2023-02-26T13:45:59;2.30;94.00
41924;DHT22;27613;48.116;11.656;2023-02-26T13:48:38;1.70;99.90
41924;DHT22;27613;48.116;11.656;2023-02-26T13:56:14;1.20;99.90
41924;DHT22;27613;48.116;11.656;2023-02-26T13:58:43;1.60;99.90
41924;DHT22;27613;48.116;11.656;2023-02-26T14:01:17;2.90;99.90
41924;DHT22;27613;48.116;11.656;2023-02-26T14:03:52;3.70;99.90
41924;DHT22;27613;48.116;11.656;2023-02-26T14:06:44;3.30;99.90
41924;DHT22;27613;48.116;11.656;2023-02-26T14:14:35;3.70;98.50
41924;DHT22;27613;48.116;11.656;2023-02-26T14:19:37;3.10;97.60
41924;DHT22;27613;48.116;11.656;2023-02-26T14:22:22;2.70;99.50
41924;DHT22;27613;48.116;11.656;2023-02-26T14:27:38;2.80;99.90
41924;DHT22;27613;48.116;11.656;2023-02-26T14:32:53;3.60;98.30
41924;DHT22;27613;48.116;11.656;2023-02-26T14:35:24;4.90;94.20
41924;DHT22;27613;48.116;11.656;2023-02-26T14:38:10;5.90;91.40
41924;DHT22;27613;48.116;11.656;2023-02-26T14:40:47;6.60;88.20
41924;DHT22;27613;48.116;11.656;2023-02-26T14:43:20;3.20;98.80
41924;DHT22;27613;48.116;11.656;2023-02-26T14:45:48;2.70;99.90
41924;DHT22;27613;48.116;11.656;2023-02-26T14:48:16;2.10;99.90
41924;DHT22;27613;48.116;11.656;2023-02-26T14:51:12;1.80;99.90
41924;DHT22;27613;48.116;11.656;2023-02-26T14:57:01;1.50;99.90
41924;DHT22;27613;48.116;11.656;2023-02-26T15:02:01;1.50;99.90
41924;DHT22;27613;48.116;11.656;2023-02-26T15:05:04;1.30;99.90
41924;DHT22;27613;48.116;11.656;2023-02-26T15:07:43;1.30;99.90
41924;DHT22;27613;48.116;11.656;2023-02-26T15:16:19;1.70;99.90
41924;DHT22;27613;48.116;11.656;2023-02-26T15:19:16;1.90;99.90
41924;DHT22;27613;48.116;11.656;2023-02-26T15:24:17;2.30;99.90
41924;DHT22;27613;48.116;11.656;2023-02-26T15:27:03;2.30;99.90
41924;DHT22;27613;48.116;11.656;2023-02-26T15:29:34;2.60;99.90
41924;DHT22;27613;48.116;11.656;2023-02-26T15:35:05;4.10;99.90
41924;DHT22;27613;48.116;11.656;2023-02-26T15:37:31;3.70;99.80
41924;DHT22;27613;48.116;11.656;2023-02-26T15:39:58;3.00;99.80
41924;DHT22;27613;48.116;11.656;2023-02-26T15:42:29;2.50;99.90
41924;DHT22;27613;48.116;11.656;2023-02-26T15:44:59;2.30;99.90
41924;DHT22;27613;48.116;11.656;2023-02-26T15:47:27;2.10;99.90
41924;DHT22;27613;48.116;11.656;2023-02-26T15:49:54;1.80;99.90
41924;DHT22;27613;48.116;11.656;2023-02-26T15:52:22;1.80;99.90
41924;DHT22;27613;48.116;11.656;2023-02-26T15:55:12;1.80;99.90
41924;DHT22;27613;48.116;11.656;2023-02-26T15:57:38;1.50;99.90
41924;DHT22;27613;48.116;11.656;2023-02-26T16:00:15;1.40;99.90
41924;DHT22;27613;48.116;11.656;2023-02-26T16:02:41;1.50;99.90
41924;DHT22;27613;48.116;11.656;2023-02-26T16:05:11;1.50;99.90
41924;DHT22;27613;48.116;11.656;2023-02-26T16:07:39;1.40;99.90
41924;DHT22;27613;48.116;11.656;2023-02-26T16:10:25;1.30;99.90
41924;DHT22;27613;48.116;11.656;2023-02-26T16:12:52;1.20;99.90
41924;DHT22;27613;48.116;11.656;2023-02-26T16:15:31;1.20;99.90
41924;DHT22;27613;48.116;11.656;2023-02-26T16:17:59;1.00;99.90
41924;DHT22;27613;48.116;11.656;2023-02-26T16:20:26;0.90;99.90
41924;DHT22;27613;48.116;11.656;2023-02-26T16:22:58;0.80;99.90
41924;DHT22;27613;48.116;11.656;2023-02-26T16:25:38;0.90;99.90
41924;DHT22;27613;48.116;11.656;2023-02-26T16:28:11;0.90;99.90
41924;DHT22;27613;48.116;11.656;2023-02-26T16:30:42;0.50;99.90
41924;DHT22;27613;48.116;11.656;2023-02-26T16:33:13;0.20;99.90
41924;DHT22;27613;48.116;11.656;2023-02-26T16:35:45;0.00;99.90
41924;DHT22;27613;48.116;11.656;2023-02-26T16:40:43;-0.30;99.90
41924;DHT22;27613;48.116;11.656;2023-02-26T16:43:32;-0.20;99.90
41924;DHT22;27613;48.116;11.656;2023-02-26T16:46:02;-0.20;99.90
41924;DHT22;27613;48.116;11.656;2023-02-26T16:48:46;-0.20;99.90
41924;DHT22;27613;48.116;11.656;2023-02-26T16:51:16;-0.10;99.90
41924;DHT22;27613;48.116;11.656;2023-02-26T16:53:51;0.00;99.90
41924;DHT22;27613;48.116;11.656;2023-02-26T16:56:21;0.00;99.90
41924;DHT22;27613;48.116;11.656;2023-02-26T16:59:32;-0.10;99.90
41924;DHT22;27613;48.116;11.656;2023-02-26T17:01:54;0.00;99.90
41924;DHT22;27613;48.116;11.656;2023-02-26T17:04:27;0.00;99.90
41924;DHT22;27613;48.116;11.656;2023-02-26T17:06:54;0.00;99.90
41924;DHT22;27613;48.116;11.656;2023-02-26T17:14:39;-0.20;99.90
41924;DHT22;27613;48.116;11.656;2023-02-26T17:17:06;-0.20;99.90
41924;DHT22;27613;48.116;11.656;2023-02-26T17:19:31;-0.30;99.90
41924;DHT22;27613;48.116;11.656;2023-02-26T17:21:58;-0.20;99.90
41924;DHT22;27613;48.116;11.656;2023-02-26T17:24:33;-0.20;99.90
41924;DHT22;27613;48.116;11.656;2023-02-26T17:27:01;-0.20;99.90
41924;DHT22;27613;48.116;11.656;2023-02-26T17:29:32;-0.30;99.90
41924;DHT22;27613;48.116;11.656;2023-02-26T17:31:58;-0.30;99.90
41924;DHT22;27613;48.116;11.656;2023-02-26T17:34:24;-0.30;99.90
41924;DHT22;27613;48.116;11.656;2023-02-26T17:36:49;-0.30;99.90
41924;DHT22;27613;48.116;11.656;2023-02-26T17:39:16;-0.40;99.90
41924;DHT22;27613;48.116;11.656;2023-02-26T17:41:43;-0.40;99.90
41924;DHT22;27613;48.116;11.656;2023-02-26T17:44:09;-0.50;99.90
41924;DHT22;27613;48.116;11.656;2023-02-26T17:46:34;-0.60;99.90
41924;DHT22;27613;48.116;11.656;2023-02-26T17:49:00;-0.70;99.90
41924;DHT22;27613;48.116;11.656;2023-02-26T17:51:25;-0.80;99.90
41924;DHT22;27613;48.116;11.656;2023-02-26T17:53:52;-0.90;99.90
41924;DHT22;27613;48.116;11.656;2023-02-26T17:56:27;-0.90;99.90
41924;DHT22;27613;48.116;11.656;2023-02-26T17:58:54;-1.10;99.90
41924;DHT22;27613;48.116;11.656;2023-02-26T18:01:20;-1.10;99.90
41924;DHT22;27613;48.116;11.656;2023-02-26T18:03:52;-1.20;99.90
41924;DHT22;27613;48.116;11.656;2023-02-26T18:06:19;-1.20;99.90
41924;DHT22;27613;48.116;11.656;2023-02-26T18:08:45;-1.30;99.90
41924;DHT22;27613;48.116;11.656;2023-02-26T18:11:13;-1.30;99.90
41924;DHT22;27613;48.116;11.656;2023-02-26T18:13:39;-1.40;99.90
41924;DHT22;27613;48.116;11.656;2023-02-26T18:16:08;-1.40;99.90
41924;DHT22;27613;48.116;11.656;2023-02-26T18:18:36;-1.50;99.90